Time;durP1;ratioP1;P1;durP2;ratioP2;P2;SDS_P1;SDS_P2;PMS_P1;PMS_P2;Temp;Humidity;BMP_temperature;BMP_pressure;BME280_temperature;BME280_humidity;BME280_pressure;Samples;Min_cycle;Max_cycle;Signal;HPM_P1;HPM_P2
2022/10/31 00:01:02;;;;;;;6.10;2.70;;;;;;;;;;5030302;28;20080;-64
2022/10/31 00:03:29;;;;;;;5.88;2.70;;;;;;;;;;5027544;28;20144;-65
2022/10/31 00:05:58;;;;;;;5.55;2.67;;;;;;;;;;5010141;28;20084;-64
2022/10/31 00:08:24;;;;;;;5.15;2.50;;;;;;;;;;5010989;28;20053;-64
2022/10/31 00:10:51;;;;;;;7.30;2.60;;;;;;;;;;5015177;28;20056;-64
2022/10/31 00:13:18;;;;;;;5.18;2.45;;;;;;;;;;5030360;28;20045;-64
2022/10/31 00:15:44;;;;;;;7.68;2.65;;;;;;;;;;5021627;28;20059;-64
2022/10/31 00:18:11;;;;;;;6.78;2.90;;;;;;;;;;5029431;28;20072;-65
2022/10/31 00:20:38;;;;;;;5.63;2.33;;;;;;;;;;5030772;28;20063;-64
2022/10/31 00:23:06;;;;;;;5.60;2.58;;;;;;;;;;5029325;28;20052;-65
2022/10/31 00:25:34;;;;;;;5.95;2.58;;;;;;;;;;5030604;28;20049;-64
2022/10/31 00:28:01;;;;;;;6.63;2.65;;;;;;;;;;5022721;28;20053;-64
2022/10/31 00:30:27;;;;;;;9.70;3.53;;;;;;;;;;5030729;28;20056;-64
2022/10/31 00:32:54;;;;;;;6.93;2.95;;;;;;;;;;5022877;28;20134;-65
2022/10/31 00:35:22;;;;;;;7.40;2.70;;;;;;;;;;5029063;28;20069;-64
2022/10/31 00:37:48;;;;;;;4.90;2.28;;;;;;;;;;5023141;28;20083;-64
2022/10/31 00:40:16;;;;;;;5.15;2.45;;;;;;;;;;5029998;28;20056;-65
2022/10/31 00:42:43;;;;;;;5.72;2.92;;;;;;;;;;5025472;28;20050;-64
2022/10/31 00:45:10;;;;;;;5.85;2.38;;;;;;;;;;5048224;28;20107;-64
2022/10/31 00:47:36;;;;;;;9.73;2.83;;;;;;;;;;5044848;28;20106;-64
2022/10/31 00:50:03;;;;;;;6.40;2.53;;;;;;;;;;5008706;28;20164;-64
2022/10/31 00:52:30;;;;;;;6.65;2.60;;;;;;;;;;5007063;28;20053;-64
2022/10/31 00:54:57;;;;;;;5.72;2.42;;;;;;;;;;5002407;28;20061;-64
2022/10/31 00:57:25;;;;;;;7.40;2.78;;;;;;;;;;5003776;28;20061;-64
2022/10/31 00:59:52;;;;;;;5.95;2.42;;;;;;;;;;5002398;28;20064;-65
2022/10/31 01:02:18;;;;;;;5.20;2.38;;;;;;;;;;5005549;28;20081;-64
2022/10/31 01:04:44;;;;;;;6.85;2.70;;;;;;;;;;5013820;28;20053;-63
2022/10/31 01:07:13;;;;;;;8.02;2.65;;;;;;;;;;5007799;28;20064;-64
2022/10/31 01:09:40;;;;;;;5.50;2.65;;;;;;;;;;5000673;28;20112;-64
2022/10/31 01:12:07;;;;;;;10.93;4.38;;;;;;;;;;5007227;28;20132;-64
2022/10/31 01:14:35;;;;;;;7.10;3.40;;;;;;;;;;5006233;28;20045;-64
2022/10/31 01:17:02;;;;;;;5.03;2.35;;;;;;;;;;5026127;28;20068;-65
2022/10/31 01:19:29;;;;;;;6.15;2.25;;;;;;;;;;5015352;28;20050;-64
2022/10/31 01:21:56;;;;;;;10.57;2.85;;;;;;;;;;5006927;28;20057;-62
2022/10/31 01:24:23;;;;;;;6.13;2.40;;;;;;;;;;5005571;28;20049;-64
2022/10/31 01:26:49;;;;;;;3.78;2.28;;;;;;;;;;5026100;28;20049;-64
2022/10/31 01:29:16;;;;;;;6.35;2.80;;;;;;;;;;5017267;28;20057;-64
2022/10/31 01:31:44;;;;;;;8.88;2.53;;;;;;;;;;5006438;28;20054;-65
2022/10/31 01:34:13;;;;;;;5.95;2.63;;;;;;;;;;5006675;28;20056;-64
2022/10/31 01:36:40;;;;;;;7.82;2.47;;;;;;;;;;5016981;28;20061;-64
2022/10/31 01:39:07;;;;;;;9.25;2.67;;;;;;;;;;5005750;28;20117;-64
2022/10/31 01:41:35;;;;;;;5.88;2.75;;;;;;;;;;5015079;28;20057;-64
2022/10/31 01:44:03;;;;;;;4.90;2.42;;;;;;;;;;5025661;28;20057;-64
2022/10/31 01:46:32;;;;;;;6.30;2.47;;;;;;;;;;5020495;28;20053;-64
2022/10/31 01:49:04;;;;;;;4.72;2.58;;;;;;;;;;5025344;28;20091;-64
2022/10/31 01:51:32;;;;;;;8.52;2.47;;;;;;;;;;5008204;28;20104;-65
2022/10/31 01:54:02;;;;;;;5.22;2.42;;;;;;;;;;5013115;28;20103;-64
2022/10/31 01:56:29;;;;;;;6.95;2.53;;;;;;;;;;5019054;28;20052;-63
2022/10/31 01:58:55;;;;;;;5.68;2.72;;;;;;;;;;5015063;28;20171;-64
2022/10/31 02:01:22;;;;;;;5.72;2.60;;;;;;;;;;5003308;28;20123;-65
2022/10/31 02:03:49;;;;;;;4.85;2.38;;;;;;;;;;5009156;28;20057;-64
2022/10/31 02:06:22;;;;;;;6.90;2.28;;;;;;;;;;5008699;28;20056;-64
2022/10/31 02:08:49;;;;;;;5.80;2.60;;;;;;;;;;5028043;28;20057;-63
2022/10/31 02:11:16;;;;;;;5.97;2.58;;;;;;;;;;5019127;28;20099;-65
2022/10/31 02:13:43;;;;;;;6.50;2.55;;;;;;;;;;5009337;28;20053;-64
2022/10/31 02:16:10;;;;;;;6.50;2.97;;;;;;;;;;5004288;28;20115;-65
2022/10/31 02:18:37;;;;;;;5.85;2.28;;;;;;;;;;5028351;28;20053;-65
2022/10/31 02:21:07;;;;;;;6.60;2.70;;;;;;;;;;5028571;28;20057;-64
2022/10/31 02:23:52;;;;;;;5.57;2.30;;;;;;;;;;5003729;28;20061;-65
2022/10/31 02:26:30;;;;;;;7.95;2.50;;;;;;;;;;5008947;28;20053;-63
2022/10/31 02:29:06;;;;;;;6.03;2.70;;;;;;;;;;5008367;28;20053;-63
2022/10/31 02:31:37;;;;;;;7.68;2.65;;;;;;;;;;5008840;28;20107;-63
2022/10/31 02:34:08;;;;;;;4.28;2.15;;;;;;;;;;5023276;28;20049;-63
2022/10/31 02:36:41;;;;;;;6.28;2.65;;;;;;;;;;5024415;28;20160;-63
2022/10/31 02:39:12;;;;;;;7.22;2.60;;;;;;;;;;5013280;28;20059;-64
2022/10/31 02:41:44;;;;;;;7.13;2.35;;;;;;;;;;5008209;28;20055;-63
2022/10/31 02:44:16;;;;;;;5.55;2.50;;;;;;;;;;5020970;28;20049;-64
2022/10/31 02:46:46;;;;;;;6.95;2.58;;;;;;;;;;5008105;28;20138;-64
2022/10/31 02:49:16;;;;;;;5.47;2.50;;;;;;;;;;5006361;28;20053;-64
2022/10/31 02:51:44;;;;;;;5.32;2.55;;;;;;;;;;5027649;28;20136;-64
2022/10/31 02:54:18;;;;;;;6.03;2.90;;;;;;;;;;5008393;28;20045;-64
2022/10/31 02:56:44;;;;;;;6.43;2.60;;;;;;;;;;5012384;28;20304;-64
2022/10/31 02:59:13;;;;;;;5.22;2.22;;;;;;;;;;5025707;28;20037;-64
2022/10/31 03:01:44;;;;;;;4.13;2.15;;;;;;;;;;5026650;28;20064;-64
2022/10/31 03:04:26;;;;;;;5.30;2.72;;;;;;;;;;5011814;28;20139;-64
2022/10/31 03:06:56;;;;;;;4.82;2.15;;;;;;;;;;5021513;28;20052;-64
2022/10/31 03:09:25;;;;;;;5.38;2.60;;;;;;;;;;5010981;28;20064;-64
2022/10/31 03:11:55;;;;;;;6.95;2.67;;;;;;;;;;5008611;28;20080;-64
2022/10/31 03:14:23;;;;;;;7.75;2.92;;;;;;;;;;5011697;28;20056;-63
2022/10/31 03:16:51;;;;;;;5.88;2.53;;;;;;;;;;5027400;28;20068;-64
2022/10/31 03:19:19;;;;;;;6.03;2.70;;;;;;;;;;5031639;28;20053;-64
2022/10/31 03:21:48;;;;;;;6.35;2.50;;;;;;;;;;5041448;28;20060;-64
2022/10/31 03:24:16;;;;;;;7.55;2.75;;;;;;;;;;5036218;28;20053;-63
2022/10/31 03:26:45;;;;;;;7.70;3.05;;;;;;;;;;5027403;28;20061;-64
2022/10/31 03:29:14;;;;;;;7.10;2.30;;;;;;;;;;5019027;28;20164;-64
2022/10/31 03:31:40;;;;;;;;;;;;;;;;;;5008794;28;20116;-64
2022/10/31 03:34:07;;;;;;;5.05;2.28;;;;;;;;;;5004641;28;19925;-65
2022/10/31 03:36:35;;;;;;;5.93;2.83;;;;;;;;;;5007407;28;20049;-64
2022/10/31 03:39:03;;;;;;;4.55;2.17;;;;;;;;;;5025258;28;20057;-64
2022/10/31 03:41:33;;;;;;;7.75;2.53;;;;;;;;;;5002700;28;20158;-64
2022/10/31 03:44:02;;;;;;;5.93;2.78;;;;;;;;;;5007771;28;20080;-64
2022/10/31 03:46:29;;;;;;;5.57;2.90;;;;;;;;;;5002718;28;20057;-64
2022/10/31 03:48:56;;;;;;;5.45;2.58;;;;;;;;;;5018408;28;20103;-64
2022/10/31 03:51:25;;;;;;;8.63;2.95;;;;;;;;;;5021715;28;20053;-64
2022/10/31 03:53:53;;;;;;;6.63;2.70;;;;;;;;;;5027356;28;20064;-64
2022/10/31 03:56:22;;;;;;;6.30;2.85;;;;;;;;;;5010223;28;20068;-64
2022/10/31 03:58:55;;;;;;;4.93;2.47;;;;;;;;;;5004837;28;20045;-64
2022/10/31 04:01:22;;;;;;;6.30;2.78;;;;;;;;;;5020201;28;20079;-64
2022/10/31 04:03:49;;;;;;;5.95;2.28;;;;;;;;;;5028163;28;20053;-64
2022/10/31 04:06:17;;;;;;;5.13;2.30;;;;;;;;;;5013715;28;20085;-64
2022/10/31 04:08:46;;;;;;;8.30;2.30;;;;;;;;;;5007126;28;20085;-64
2022/10/31 04:11:14;;;;;;;6.30;2.80;;;;;;;;;;5007820;28;20060;-64
2022/10/31 04:13:42;;;;;;;5.95;3.00;;;;;;;;;;5027849;28;20072;-64
2022/10/31 04:16:11;;;;;;;5.65;2.42;;;;;;;;;;5018322;28;20089;-64
2022/10/31 04:18:38;;;;;;;7.05;2.90;;;;;;;;;;5007138;28;20066;-66
2022/10/31 04:21:05;;;;;;;6.30;2.58;;;;;;;;;;5001325;28;20058;-64
2022/10/31 04:23:32;;;;;;;5.28;2.60;;;;;;;;;;5007330;28;20045;-64
2022/10/31 04:25:59;;;;;;;6.28;2.90;;;;;;;;;;5007927;28;20065;-64
2022/10/31 04:28:25;;;;;;;5.20;2.58;;;;;;;;;;5002769;28;20050;-64
2022/10/31 04:30:52;;;;;;;7.68;3.17;;;;;;;;;;5007191;28;20046;-64
2022/10/31 04:33:21;;;;;;;7.15;2.95;;;;;;;;;;5002214;28;20096;-64
2022/10/31 04:35:47;;;;;;;7.40;2.90;;;;;;;;;;5008043;28;20050;-64
2022/10/31 04:38:14;;;;;;;9.30;3.22;;;;;;;;;;5015439;28;20060;-64
2022/10/31 04:40:40;;;;;;;6.97;3.03;;;;;;;;;;5027291;28;20054;-64
2022/10/31 04:43:07;;;;;;;5.90;2.75;;;;;;;;;;5009786;28;20104;-64
2022/10/31 04:45:35;;;;;;;7.93;2.85;;;;;;;;;;5008836;28;20061;-64
2022/10/31 04:48:01;;;;;;;7.78;2.95;;;;;;;;;;5001953;28;20057;-66
2022/10/31 04:50:30;;;;;;;6.50;2.97;;;;;;;;;;5007869;28;20050;-64
2022/10/31 04:52:56;;;;;;;;;;;;;;;;;;5006819;28;20053;-64
2022/10/31 04:55:23;;;;;;;7.03;2.97;;;;;;;;;;5010450;28;20001;-64
2022/10/31 04:57:50;;;;;;;8.15;3.17;;;;;;;;;;5001217;28;20053;-64
2022/10/31 05:00:17;;;;;;;6.00;2.60;;;;;;;;;;5009837;28;20053;-64
2022/10/31 05:02:45;;;;;;;5.90;2.90;;;;;;;;;;5005200;28;20057;-64
2022/10/31 05:05:11;;;;;;;7.40;3.40;;;;;;;;;;5010000;28;20096;-64
2022/10/31 05:07:41;;;;;;;6.13;2.72;;;;;;;;;;5010190;28;20076;-64
2022/10/31 05:10:09;;;;;;;5.82;2.78;;;;;;;;;;5024547;28;20053;-64
2022/10/31 05:12:36;;;;;;;6.97;3.05;;;;;;;;;;5010411;28;20140;-64
2022/10/31 05:15:02;;;;;;;7.50;2.80;;;;;;;;;;4999310;28;20050;-64
2022/10/31 05:17:29;;;;;;;7.45;2.75;;;;;;;;;;4990108;28;20049;-64
2022/10/31 05:19:55;;;;;;;8.60;2.92;;;;;;;;;;4985522;28;20058;-64
2022/10/31 05:22:22;;;;;;;7.75;3.10;;;;;;;;;;5026153;28;20054;-64
2022/10/31 05:24:50;;;;;;;8.02;3.33;;;;;;;;;;5020609;28;20057;-64
2022/10/31 05:27:16;;;;;;;7.75;3.30;;;;;;;;;;5009368;28;20056;-64
2022/10/31 05:29:43;;;;;;;7.75;3.20;;;;;;;;;;4999323;28;20057;-64
2022/10/31 05:32:10;;;;;;;7.97;3.60;;;;;;;;;;4990048;28;20058;-64
2022/10/31 05:34:37;;;;;;;6.50;2.92;;;;;;;;;;4991514;28;20064;-64
2022/10/31 05:37:03;;;;;;;8.18;2.95;;;;;;;;;;5009557;28;20049;-63
2022/10/31 05:39:30;;;;;;;7.45;3.40;;;;;;;;;;4997493;28;20056;-64
2022/10/31 05:41:58;;;;;;;8.70;3.00;;;;;;;;;;4989665;28;20140;-64
2022/10/31 05:44:25;;;;;;;8.50;3.20;;;;;;;;;;4985838;28;20081;-64
2022/10/31 05:46:52;;;;;;;8.13;3.53;;;;;;;;;;4995311;28;20312;-64
2022/10/31 05:49:18;;;;;;;8.68;3.20;;;;;;;;;;5005526;28;20061;-64
2022/10/31 05:51:45;;;;;;;7.00;3.40;;;;;;;;;;4988402;28;20069;-64
2022/10/31 05:54:11;;;;;;;8.60;3.55;;;;;;;;;;5022407;28;20103;-64
2022/10/31 05:56:37;;;;;;;6.68;3.15;;;;;;;;;;5004288;28;20111;-64
2022/10/31 05:59:05;;;;;;;7.38;2.90;;;;;;;;;;5019624;28;20049;-64
2022/10/31 06:01:32;;;;;;;7.70;3.22;;;;;;;;;;5015653;28;20145;-64
2022/10/31 06:03:58;;;;;;;9.90;4.55;;;;;;;;;;5022148;28;20053;-64
2022/10/31 06:06:25;;;;;;;5.85;3.13;;;;;;;;;;5018009;28;20084;-64
2022/10/31 06:08:52;;;;;;;8.63;3.25;;;;;;;;;;5023299;28;20049;-64
2022/10/31 06:11:18;;;;;;;17.17;6.30;;;;;;;;;;5016419;28;20118;-64
2022/10/31 06:13:46;;;;;;;8.73;3.85;;;;;;;;;;5021944;28;20064;-64
2022/10/31 06:16:13;;;;;;;7.70;3.38;;;;;;;;;;5014912;28;20127;-64
2022/10/31 06:18:40;;;;;;;7.30;3.38;;;;;;;;;;5021094;28;20053;-64
2022/10/31 06:21:08;;;;;;;7.20;3.40;;;;;;;;;;5010120;28;20060;-64
2022/10/31 06:23:34;;;;;;;8.23;3.92;;;;;;;;;;5023188;28;20057;-64
2022/10/31 06:26:01;;;;;;;11.32;5.45;;;;;;;;;;5015936;28;20065;-64
2022/10/31 06:28:27;;;;;;;10.48;3.95;;;;;;;;;;5021592;28;20057;-64
2022/10/31 06:30:54;;;;;;;8.73;3.92;;;;;;;;;;5018765;28;20064;-64
2022/10/31 06:33:22;;;;;;;8.85;3.58;;;;;;;;;;5020516;28;20085;-64
2022/10/31 06:35:49;;;;;;;8.93;3.65;;;;;;;;;;5023735;28;20057;-64
2022/10/31 06:38:15;;;;;;;7.60;3.70;;;;;;;;;;5016036;28;20076;-64
2022/10/31 06:40:42;;;;;;;10.38;3.55;;;;;;;;;;5024531;28;20107;-64
2022/10/31 06:43:11;;;;;;;12.68;5.40;;;;;;;;;;5018770;28;20152;-64
2022/10/31 06:45:38;;;;;;;15.85;5.82;;;;;;;;;;5025000;28;20054;-64
2022/10/31 06:48:04;;;;;;;10.45;4.80;;;;;;;;;;5015510;28;20141;-64
2022/10/31 06:50:32;;;;;;;8.48;3.88;;;;;;;;;;5005604;28;20122;-64
2022/10/31 06:52:59;;;;;;;12.95;5.25;;;;;;;;;;5003556;28;20053;-64
2022/10/31 06:55:26;;;;;;;9.07;4.32;;;;;;;;;;5021710;28;20049;-64
2022/10/31 06:57:53;;;;;;;9.68;3.63;;;;;;;;;;4999086;28;20117;-64
2022/10/31 07:00:20;;;;;;;10.25;3.97;;;;;;;;;;5008062;28;20057;-64
2022/10/31 07:02:53;;;;;;;9.50;4.28;;;;;;;;;;5002907;28;20049;-64
2022/10/31 07:05:20;;;;;;;10.40;4.13;;;;;;;;;;5007677;28;20052;-64
2022/10/31 07:07:48;;;;;;;9.73;4.57;;;;;;;;;;5018278;28;20046;-64
2022/10/31 07:10:15;;;;;;;9.57;3.83;;;;;;;;;;5006082;28;20053;-64
2022/10/31 07:12:42;;;;;;;7.65;3.70;;;;;;;;;;5002239;28;20300;-63
2022/10/31 07:15:09;;;;;;;8.90;3.75;;;;;;;;;;5008499;28;20064;-64
2022/10/31 07:17:35;;;;;;;9.27;3.88;;;;;;;;;;5007873;28;20049;-64
2022/10/31 07:20:02;;;;;;;14.07;6.13;;;;;;;;;;5003986;28;20049;-64
2022/10/31 07:22:33;;;;;;;11.95;5.13;;;;;;;;;;5044612;28;20052;-64
2022/10/31 07:25:01;;;;;;;8.48;4.00;;;;;;;;;;5005075;28;20055;-63
2022/10/31 07:27:28;;;;;;;10.35;4.25;;;;;;;;;;5011022;28;20214;-64
2022/10/31 07:29:55;;;;;;;9.25;3.95;;;;;;;;;;5022008;28;20131;-64
2022/10/31 07:32:23;;;;;;;8.98;3.80;;;;;;;;;;5011866;28;20058;-64
2022/10/31 07:34:49;;;;;;;12.15;4.18;;;;;;;;;;5021539;28;20061;-64
2022/10/31 07:37:15;;;;;;;9.35;4.10;;;;;;;;;;5011894;28;20056;-64
2022/10/31 07:39:42;;;;;;;8.57;3.67;;;;;;;;;;5004784;28;20124;-64
2022/10/31 07:42:10;;;;;;;6.93;3.50;;;;;;;;;;5027922;28;20057;-64
2022/10/31 07:44:37;;;;;;;15.10;6.20;;;;;;;;;;5005919;28;20058;-64
2022/10/31 07:47:04;;;;;;;9.57;4.25;;;;;;;;;;5025434;28;20140;-63
2022/10/31 07:49:31;;;;;;;16.63;6.45;;;;;;;;;;5004500;28;20053;-64
2022/10/31 07:51:57;;;;;;;13.90;6.63;;;;;;;;;;5027910;28;20088;-64
2022/10/31 07:54:27;;;;;;;9.98;4.90;;;;;;;;;;5005594;28;20065;-64
2022/10/31 07:56:53;;;;;;;10.35;3.80;;;;;;;;;;5011352;28;20064;-64
2022/10/31 07:59:22;;;;;;;17.98;6.97;;;;;;;;;;5004791;28;20238;-64
2022/10/31 08:01:48;;;;;;;12.98;5.85;;;;;;;;;;5010115;28;20054;-64
2022/10/31 08:04:15;;;;;;;11.40;5.07;;;;;;;;;;5011020;28;20061;-64
2022/10/31 08:06:41;;;;;;;14.25;6.57;;;;;;;;;;4991273;28;20049;-64
2022/10/31 08:09:08;;;;;;;22.05;9.30;;;;;;;;;;5007656;28;20061;-63
2022/10/31 08:11:35;;;;;;;26.45;10.95;;;;;;;;;;5013614;28;20073;-64
2022/10/31 08:14:02;;;;;;;21.77;9.10;;;;;;;;;;4991631;28;20060;-64
2022/10/31 08:16:30;;;;;;;14.68;7.05;;;;;;;;;;5018337;28;20193;-64
2022/10/31 08:18:56;;;;;;;19.83;8.75;;;;;;;;;;5024335;28;20054;-64
2022/10/31 08:21:23;;;;;;;14.00;5.47;;;;;;;;;;5031587;28;20063;-64
2022/10/31 08:23:49;;;;;;;9.68;4.50;;;;;;;;;;5010673;28;20059;-64
2022/10/31 08:26:16;;;;;;;20.45;8.48;;;;;;;;;;5005369;28;20053;-64
2022/10/31 08:28:42;;;;;;;23.90;7.90;;;;;;;;;;5010278;28;20148;-64
2022/10/31 08:31:09;;;;;;;11.55;5.35;;;;;;;;;;5009148;28;20065;-64
2022/10/31 08:33:37;;;;;;;14.70;6.43;;;;;;;;;;5030436;28;20053;-64
2022/10/31 08:36:04;;;;;;;13.13;6.53;;;;;;;;;;5022172;28;20065;-64
2022/10/31 08:38:31;;;;;;;14.77;7.30;;;;;;;;;;5008908;28;20041;-64
2022/10/31 08:40:58;;;;;;;17.73;7.05;;;;;;;;;;5014004;28;20141;-63
2022/10/31 08:43:24;;;;;;;14.07;6.70;;;;;;;;;;4991615;28;20050;-64
2022/10/31 08:45:54;;;;;;;16.50;7.05;;;;;;;;;;5010412;28;20057;-64
2022/10/31 08:48:20;;;;;;;16.73;7.65;;;;;;;;;;5003457;28;20068;-64
2022/10/31 08:50:49;;;;;;;10.77;4.78;;;;;;;;;;4990194;28;20049;-64
2022/10/31 08:53:16;;;;;;;12.07;5.45;;;;;;;;;;5010989;28;20080;-64
2022/10/31 08:55:43;;;;;;;16.45;6.93;;;;;;;;;;5029969;28;20053;-64
2022/10/31 08:58:11;;;;;;;15.15;6.40;;;;;;;;;;5030505;28;20102;-65
2022/10/31 09:00:38;;;;;;;20.45;6.05;;;;;;;;;;5029567;28;20079;-63
2022/10/31 09:03:06;;;;;;;11.75;5.18;;;;;;;;;;5029719;28;20057;-64
2022/10/31 09:05:32;;;;;;;15.48;6.15;;;;;;;;;;5011525;28;20096;-65
2022/10/31 09:08:01;;;;;;;14.98;7.00;;;;;;;;;;5011660;28;20061;-64
2022/10/31 09:10:27;;;;;;;;;;;;;;;;;;5029518;28;20102;-64
2022/10/31 09:12:57;;;;;;;10.32;4.22;;;;;;;;;;5039890;28;19925;-64
2022/10/31 09:15:24;;;;;;;13.98;5.65;;;;;;;;;;5022554;28;20045;-64
2022/10/31 09:17:51;;;;;;;11.73;5.57;;;;;;;;;;5008005;28;20053;-64
2022/10/31 09:20:18;;;;;;;10.13;4.57;;;;;;;;;;5026175;28;20061;-65
2022/10/31 09:22:47;;;;;;;8.32;4.15;;;;;;;;;;5003964;28;20115;-64
2022/10/31 09:25:15;;;;;;;13.60;6.07;;;;;;;;;;5011048;28;20136;-65
2022/10/31 09:27:42;;;;;;;12.23;5.22;;;;;;;;;;5026124;28;20045;-64
2022/10/31 09:30:09;;;;;;;9.00;4.43;;;;;;;;;;5002384;28;20080;-64
2022/10/31 09:32:35;;;;;;;11.90;4.32;;;;;;;;;;5026826;28;20057;-64
2022/10/31 09:35:02;;;;;;;9.38;4.15;;;;;;;;;;5003912;28;20049;-64
2022/10/31 09:37:28;;;;;;;12.73;4.53;;;;;;;;;;5011042;28;20049;-64
2022/10/31 09:39:55;;;;;;;8.57;4.25;;;;;;;;;;5015353;28;20172;-64
2022/10/31 09:42:30;;;;;;;11.30;4.47;;;;;;;;;;5029116;28;20056;-64
2022/10/31 09:45:02;;;;;;;9.05;3.85;;;;;;;;;;5021644;28;20053;-64
2022/10/31 09:47:34;;;;;;;10.57;4.47;;;;;;;;;;5029252;28;20045;-64
2022/10/31 09:50:08;;;;;;;11.93;4.82;;;;;;;;;;5011735;28;20042;-64
2022/10/31 09:52:36;;;;;;;13.77;5.43;;;;;;;;;;5008842;28;20123;-64
2022/10/31 09:55:05;;;;;;;12.70;5.75;;;;;;;;;;5016529;28;20064;-65
2022/10/31 09:57:35;;;;;;;13.50;5.72;;;;;;;;;;5025597;28;20049;-65
2022/10/31 10:00:05;;;;;;;12.38;5.05;;;;;;;;;;5014039;28;20057;-64
2022/10/31 10:02:33;;;;;;;11.07;4.95;;;;;;;;;;5008836;28;20062;-64
2022/10/31 10:05:04;;;;;;;12.93;5.28;;;;;;;;;;5004595;28;20057;-63
2022/10/31 10:07:36;;;;;;;9.45;4.75;;;;;;;;;;5029043;28;20048;-64
2022/10/31 10:10:03;;;;;;;13.07;6.18;;;;;;;;;;5022585;28;20151;-64
2022/10/31 10:12:38;;;;;;;13.90;5.47;;;;;;;;;;5028649;28;20149;-63
2022/10/31 10:15:17;;;;;;;14.43;6.32;;;;;;;;;;5021944;28;20083;-64
2022/10/31 10:17:47;;;;;;;9.27;4.47;;;;;;;;;;5028006;28;20069;-64
2022/10/31 10:20:27;;;;;;;15.00;6.13;;;;;;;;;;5018410;28;20054;-63
2022/10/31 10:22:56;;;;;;;11.60;5.38;;;;;;;;;;5008224;28;20200;-64
2022/10/31 10:25:24;;;;;;;17.15;6.65;;;;;;;;;;5008465;28;20045;-64
2022/10/31 10:27:55;;;;;;;12.43;5.28;;;;;;;;;;5048426;28;20056;-64
2022/10/31 10:30:22;;;;;;;15.52;6.00;;;;;;;;;;5040618;28;20052;-65
2022/10/31 10:32:51;;;;;;;19.10;7.17;;;;;;;;;;5048184;28;20048;-64
2022/10/31 10:35:24;;;;;;;15.65;6.63;;;;;;;;;;5048259;28;20071;-64
2022/10/31 10:37:53;;;;;;;13.05;5.80;;;;;;;;;;5026141;28;20053;-64
2022/10/31 10:40:22;;;;;;;16.45;7.05;;;;;;;;;;5045764;28;20059;-64
2022/10/31 10:48:29;;;;;;;19.88;7.25;;;;;;;;;;5006854;28;20064;-64
2022/10/31 10:50:56;;;;;;;16.00;7.25;;;;;;;;;;5008045;28;20063;-63
2022/10/31 10:53:48;;;;;;;18.77;7.47;;;;;;;;;;5018094;28;20053;-63
2022/10/31 10:56:18;;;;;;;21.88;6.50;;;;;;;;;;5019515;28;20227;-64
2022/10/31 10:58:45;;;;;;;23.02;8.07;;;;;;;;;;5024777;28;20060;-63
2022/10/31 11:01:14;;;;;;;14.65;6.70;;;;;;;;;;5006976;28;20144;-63
2022/10/31 11:03:41;;;;;;;14.75;7.25;;;;;;;;;;5024088;28;20057;-64
2022/10/31 11:06:17;;;;;;;13.75;6.60;;;;;;;;;;5021086;28;20050;-63
2022/10/31 11:08:44;;;;;;;18.50;7.05;;;;;;;;;;5005800;28;20060;-63
2022/10/31 11:11:15;;;;;;;14.57;6.43;;;;;;;;;;5011169;28;20071;-63
2022/10/31 11:13:42;;;;;;;18.08;6.75;;;;;;;;;;5020927;28;20049;-63
2022/10/31 11:16:10;;;;;;;17.90;7.68;;;;;;;;;;5031191;28;20057;-63
2022/10/31 11:18:38;;;;;;;15.02;7.28;;;;;;;;;;5011668;28;20076;-64
2022/10/31 11:21:05;;;;;;;;;;;;;;;;;;5011754;28;20054;-63
2022/10/31 11:23:32;;;;;;;20.85;6.85;;;;;;;;;;5006317;28;19925;-64
2022/10/31 11:26:02;;;;;;;22.90;9.50;;;;;;;;;;5011487;28;20046;-64
2022/10/31 11:28:30;;;;;;;20.60;7.65;;;;;;;;;;5013053;28;20057;-63
2022/10/31 11:30:57;;;;;;;19.58;8.68;;;;;;;;;;5031183;28;20057;-64
2022/10/31 11:33:27;;;;;;;23.00;8.73;;;;;;;;;;5018380;28;20115;-64
2022/10/31 11:35:56;;;;;;;27.48;9.57;;;;;;;;;;5011067;28;20046;-64
2022/10/31 11:38:24;;;;;;;21.55;8.88;;;;;;;;;;5009501;28;20046;-64
2022/10/31 11:40:59;;;;;;;27.15;9.88;;;;;;;;;;5021786;28;20185;-64
2022/10/31 11:43:26;;;;;;;23.63;9.38;;;;;;;;;;5020191;28;20049;-64
2022/10/31 11:45:52;;;;;;;23.88;9.57;;;;;;;;;;5011416;28;20042;-64
2022/10/31 11:48:21;;;;;;;21.92;7.78;;;;;;;;;;5006568;28;20145;-64
2022/10/31 11:50:49;;;;;;;24.05;9.85;;;;;;;;;;5029954;28;20052;-64
2022/10/31 11:53:18;;;;;;;23.55;8.02;;;;;;;;;;5030706;28;20057;-64
2022/10/31 11:55:44;;;;;;;;;;;;;;;;;;5022093;28;20144;-63
2022/10/31 11:58:21;;;;;;;20.42;8.45;;;;;;;;;;5014205;28;19932;-64
2022/10/31 12:00:50;;;;;;;25.00;8.40;;;;;;;;;;5007543;28;20082;-65
2022/10/31 12:03:27;;;;;;;22.42;10.00;;;;;;;;;;5010619;28;20057;-65
2022/10/31 12:05:55;;;;;;;24.58;9.77;;;;;;;;;;5009525;28;20108;-63
2022/10/31 12:08:23;;;;;;;25.15;10.38;;;;;;;;;;5010803;28;20061;-64
2022/10/31 12:11:07;;;;;;;24.35;9.93;;;;;;;;;;5019036;28;20107;-64
2022/10/31 12:13:35;;;;;;;24.15;9.52;;;;;;;;;;5027776;28;20096;-64
2022/10/31 12:16:08;;;;;;;30.23;10.00;;;;;;;;;;5008005;28;20046;-64
2022/10/31 12:18:47;;;;;;;29.23;9.05;;;;;;;;;;5007078;28;20140;-65
2022/10/31 12:21:19;;;;;;;21.00;8.98;;;;;;;;;;5015601;28;20057;-64
2022/10/31 12:23:55;;;;;;;26.38;10.18;;;;;;;;;;5027183;28;20060;-65
2022/10/31 12:26:24;;;;;;;29.00;10.90;;;;;;;;;;5007303;28;20046;-64
2022/10/31 12:29:01;;;;;;;25.45;9.73;;;;;;;;;;5006732;28;20069;-64
2022/10/31 12:31:33;;;;;;;32.17;10.77;;;;;;;;;;5014334;28;20148;-64
2022/10/31 12:34:03;;;;;;;26.88;9.93;;;;;;;;;;5027383;28;20045;-64
2022/10/31 12:36:44;;;;;;;28.33;10.52;;;;;;;;;;5016321;28;20053;-62
2022/10/31 12:39:25;;;;;;;31.40;10.90;;;;;;;;;;5026514;28;20049;-62
2022/10/31 12:41:53;;;;;;;27.25;9.85;;;;;;;;;;5008085;28;20137;-63
2022/10/31 12:44:35;;;;;;;30.20;11.18;;;;;;;;;;5006479;28;20116;-64
2022/10/31 12:47:14;;;;;;;26.77;10.48;;;;;;;;;;5003040;28;20049;-64
2022/10/31 12:49:46;;;;;;;30.17;11.60;;;;;;;;;;5007091;28;20121;-64
2022/10/31 12:52:19;;;;;;;26.48;11.13;;;;;;;;;;5015305;28;20150;-64
2022/10/31 12:55:00;;;;;;;26.45;10.73;;;;;;;;;;5024917;28;20049;-64
2022/10/31 12:57:32;;;;;;;32.17;10.35;;;;;;;;;;4998852;28;20056;-64
2022/10/31 13:00:04;;;;;;;27.58;11.13;;;;;;;;;;5017638;28;20049;-64
2022/10/31 13:02:34;;;;;;;23.92;10.32;;;;;;;;;;5024153;28;20049;-63
2022/10/31 13:05:02;;;;;;;33.30;12.80;;;;;;;;;;5028764;28;20045;-64
2022/10/31 13:07:29;;;;;;;;;;;;;;;;;;5023705;28;20084;-65
2022/10/31 13:09:57;;;;;;;31.90;11.15;;;;;;;;;;5029138;28;19932;-63
2022/10/31 13:12:24;;;;;;;;;;;;;;;;;;5031296;28;20084;-64
2022/10/31 13:14:54;;;;;;;25.00;9.27;;;;;;;;;;5043996;28;19928;-64
2022/10/31 13:17:24;;;;;;;29.95;10.80;;;;;;;;;;5010011;28;20045;-63
2022/10/31 13:19:53;;;;;;;33.28;12.82;;;;;;;;;;5028862;28;20057;-64
2022/10/31 13:22:21;;;;;;;30.33;10.80;;;;;;;;;;5020422;28;20109;-65
2022/10/31 13:24:51;;;;;;;29.20;10.38;;;;;;;;;;5009555;28;20064;-64
2022/10/31 13:27:21;;;;;;;30.42;12.00;;;;;;;;;;5002433;28;20054;-64
2022/10/31 13:29:53;;;;;;;30.33;11.10;;;;;;;;;;5008921;28;20088;-65
2022/10/31 13:32:22;;;;;;;31.35;11.75;;;;;;;;;;5004679;28;20049;-64
2022/10/31 13:34:52;;;;;;;28.42;11.35;;;;;;;;;;5028828;28;20053;-64
2022/10/31 13:37:23;;;;;;;28.13;10.57;;;;;;;;;;5027376;28;20065;-65
2022/10/31 13:39:53;;;;;;;28.63;10.60;;;;;;;;;;5019186;28;20057;-65
2022/10/31 13:42:23;;;;;;;28.05;11.35;;;;;;;;;;5009165;28;20050;-64
2022/10/31 13:44:49;;;;;;;31.85;11.30;;;;;;;;;;5020452;28;20092;-62
2022/10/31 13:47:23;;;;;;;30.38;11.40;;;;;;;;;;5029158;28;20059;-65
2022/10/31 13:49:50;;;;;;;25.90;10.52;;;;;;;;;;5006687;28;20057;-64
2022/10/31 13:52:26;;;;;;;26.92;11.80;;;;;;;;;;5008685;28;20072;-64
2022/10/31 13:54:55;;;;;;;30.60;11.38;;;;;;;;;;5006742;28;20053;-65
2022/10/31 13:57:31;;;;;;;24.05;10.35;;;;;;;;;;5038298;28;20048;-65
2022/10/31 13:59:59;;;;;;;31.17;10.77;;;;;;;;;;5027016;28;20053;-63
2022/10/31 14:02:29;;;;;;;34.03;11.73;;;;;;;;;;5019888;28;20110;-64
2022/10/31 14:04:58;;;;;;;24.85;10.27;;;;;;;;;;5020196;28;20077;-64
2022/10/31 14:07:26;;;;;;;31.35;11.05;;;;;;;;;;5008491;28;20049;-65
2022/10/31 14:09:57;;;;;;;30.58;10.15;;;;;;;;;;5013066;28;20149;-64
2022/10/31 14:12:26;;;;;;;31.00;10.73;;;;;;;;;;5045045;28;20053;-64
2022/10/31 14:17:22;;;;;;;21.67;9.25;;;;;;;;;;5012812;28;19924;-64
2022/10/31 14:20:02;;;;;;;31.27;11.18;;;;;;;;;;5037499;28;20148;-63
2022/10/31 14:22:32;;;;;;;24.10;9.40;;;;;;;;;;5028878;28;20091;-65
2022/10/31 14:24:59;;;;;;;28.77;9.98;;;;;;;;;;5021423;28;20164;-64
2022/10/31 14:27:46;;;;;;;29.63;10.98;;;;;;;;;;5028236;28;20048;-65
2022/10/31 14:30:17;;;;;;;30.55;10.77;;;;;;;;;;5024222;28;20049;-64
2022/10/31 14:32:44;;;;;;;25.90;9.82;;;;;;;;;;5028173;28;20056;-62
2022/10/31 14:35:16;;;;;;;30.08;11.32;;;;;;;;;;5011479;28;20107;-62
2022/10/31 14:37:53;;;;;;;24.75;9.32;;;;;;;;;;5007768;28;20176;-64
2022/10/31 14:40:25;;;;;;;23.67;8.75;;;;;;;;;;5004238;28;20094;-64
2022/10/31 14:43:08;;;;;;;24.67;9.73;;;;;;;;;;5011164;28;20060;-64
2022/10/31 14:45:40;;;;;;;30.38;11.85;;;;;;;;;;5022535;28;20065;-63
2022/10/31 14:48:12;;;;;;;20.45;8.73;;;;;;;;;;5027796;28;20056;-64
2022/10/31 14:50:45;;;;;;;24.70;10.15;;;;;;;;;;5019092;28;20057;-64
2022/10/31 14:53:15;;;;;;;25.58;9.60;;;;;;;;;;5021808;28;20050;-64